createdAt,value
2023-05-23T00:02:55.489Z,10.53
2023-05-23T00:07:58.128Z,10.56
2023-05-23T00:13:00.724Z,10.37
2023-05-23T00:18:03.545Z,10.43
2023-05-23T00:23:06.185Z,10.43
2023-05-23T00:28:09.200Z,10.43
2023-05-23T00:33:14.535Z,10.35
2023-05-23T00:38:17.722Z,10.34
2023-05-23T00:43:22.719Z,10.28
2023-05-23T00:48:26.365Z,10.15
2023-05-23T00:53:29.174Z,10.09
2023-05-23T00:58:32.235Z,9.80
2023-05-23T01:03:34.944Z,10.01
2023-05-23T01:08:38.147Z,10.03
2023-05-23T01:13:47.912Z,10.17
2023-05-23T01:18:59.240Z,10.15
2023-05-23T01:24:36.575Z,10.29
2023-05-23T01:29:47.982Z,10.65
2023-05-23T01:34:53.479Z,10.73
2023-05-23T01:39:56.205Z,10.98
2023-05-23T01:44:59.679Z,11.34
2023-05-23T01:50:03.094Z,12.98
2023-05-23T01:55:09.877Z,14.42
2023-05-23T02:00:15.549Z,14.59
2023-05-23T02:05:18.261Z,14.64
2023-05-23T02:10:21.553Z,14.09
2023-05-23T02:15:24.367Z,14.34
2023-05-23T02:20:27.079Z,17.15
2023-05-23T02:25:29.804Z,20.46
2023-05-23T02:30:32.622Z,22.41
2023-05-23T02:35:35.376Z,23.34
2023-05-23T02:40:37.982Z,24.14
2023-05-23T02:45:40.849Z,24.71
2023-05-23T02:50:44.328Z,25.24
2023-05-23T02:55:47.111Z,24.73
2023-05-23T03:00:49.729Z,22.63
2023-05-23T03:05:52.516Z,21.56
2023-05-23T03:10:55.191Z,19.73
2023-05-23T03:15:57.861Z,18.69
2023-05-23T03:21:00.628Z,17.55
2023-05-23T03:26:04.055Z,17.28
2023-05-23T03:31:06.789Z,16.99
2023-05-23T03:36:09.541Z,16.78
2023-05-23T03:41:12.211Z,16.59
2023-05-23T03:46:15.743Z,16.70
2023-05-23T03:51:18.642Z,16.79
2023-05-23T03:56:21.606Z,16.85
2023-05-23T04:01:25.132Z,17.17
2023-05-23T04:06:31.359Z,17.50
2023-05-23T04:11:34.285Z,18.07
2023-05-23T04:16:38.433Z,18.14
2023-05-23T04:21:41.356Z,18.09
2023-05-23T04:26:46.119Z,17.76
2023-05-23T04:31:48.989Z,17.59
2023-05-23T04:36:53.960Z,17.27
2023-05-23T04:41:57.966Z,16.94
2023-05-23T04:47:25.020Z,16.99
2023-05-23T04:52:37.204Z,17.35
2023-05-23T04:57:40.302Z,17.78
2023-05-23T05:02:43.704Z,17.99
2023-05-23T05:07:46.463Z,18.17
2023-05-23T05:12:52.039Z,18.33
2023-05-23T05:17:55.391Z,18.51
2023-05-23T05:22:58.651Z,18.51
2023-05-23T05:28:08.592Z,18.83
2023-05-23T05:33:19.720Z,18.99
2023-05-23T05:38:22.757Z,18.75
2023-05-23T05:43:26.836Z,18.25
2023-05-23T05:48:29.851Z,17.85
2023-05-23T05:53:37.114Z,17.45
2023-05-23T05:58:40.693Z,17.24
2023-05-23T06:03:48.696Z,17.07
2023-05-23T06:08:51.501Z,17.05
2023-05-23T06:13:54.298Z,17.24
2023-05-23T06:18:57.229Z,17.46
2023-05-23T06:24:03.662Z,17.83
2023-05-23T06:29:06.677Z,18.15
2023-05-23T06:34:10.419Z,18.34
2023-05-23T06:39:13.024Z,18.85
2023-05-23T06:44:15.852Z,19.50
2023-05-23T06:49:18.500Z,20.00
2023-05-23T06:54:21.520Z,20.52
2023-05-23T06:59:25.269Z,20.74
2023-05-23T07:04:28.433Z,21.17
2023-05-23T07:09:35.710Z,21.35
2023-05-23T07:14:45.040Z,21.41
2023-05-23T07:19:47.740Z,21.57
2023-05-23T07:24:50.576Z,21.87
2023-05-23T07:29:53.976Z,22.14
2023-05-23T07:34:56.653Z,22.30
2023-05-23T07:40:01.430Z,22.44
2023-05-23T07:45:06.225Z,22.76
2023-05-23T07:50:09.689Z,22.95
2023-05-23T07:55:13.641Z,23.26
2023-05-23T08:00:16.949Z,23.56
2023-05-23T08:05:20.001Z,23.51
2023-05-23T08:10:28.373Z,23.60
2023-05-23T08:15:37.792Z,23.57
2023-05-23T08:20:49.418Z,23.71
2023-05-23T08:25:53.231Z,23.81
2023-05-23T08:30:57.406Z,23.16
2023-05-23T08:36:01.328Z,22.81
2023-05-23T08:41:09.856Z,22.94
2023-05-23T08:46:14.637Z,22.85
2023-05-23T08:51:20.204Z,23.68
2023-05-23T08:56:28.474Z,23.88
2023-05-23T09:01:34.145Z,24.34
2023-05-23T09:06:39.364Z,24.05
2023-05-23T09:11:46.105Z,24.20
2023-05-23T09:16:50.443Z,23.61
2023-05-23T09:21:58.071Z,23.11
2023-05-23T09:27:05.987Z,23.40
2023-05-23T09:32:20.414Z,23.20
2023-05-23T09:37:34.094Z,23.11
2023-05-23T09:42:45.576Z,22.94
2023-05-23T09:47:52.979Z,22.71
2023-05-23T09:52:55.786Z,21.78
2023-05-23T09:58:00.184Z,21.22
2023-05-23T10:03:14.857Z,21.22
2023-05-23T10:08:30.272Z,21.17
2023-05-23T10:13:33.522Z,21.52
2023-05-23T10:18:43.958Z,21.42
2023-05-23T10:23:48.285Z,21.44
2023-05-23T10:28:52.181Z,21.63
2023-05-23T10:34:05.074Z,20.56
2023-05-23T10:39:36.996Z,20.37
2023-05-23T10:44:39.673Z,19.92
2023-05-23T10:49:47.745Z,19.70
2023-05-23T11:07:35.578Z,19.95
2023-05-23T11:12:42.869Z,19.37
2023-05-23T11:17:56.745Z,18.86
2023-05-23T11:23:07.633Z,18.39
2023-05-23T11:28:11.825Z,18.28
2023-05-23T11:33:17.202Z,18.26
2023-05-23T11:38:20.168Z,18.14
2023-05-23T11:43:22.909Z,17.87
2023-05-23T11:48:25.579Z,17.75
2023-05-23T11:53:28.736Z,17.78
2023-05-23T11:58:34.242Z,17.65
2023-05-23T12:03:51.483Z,17.48
2023-05-23T12:08:54.496Z,17.42
2023-05-23T12:13:57.927Z,17.34
2023-05-23T12:19:02.286Z,17.38
2023-05-23T12:24:17.405Z,17.57
2023-05-23T12:29:22.426Z,17.87
2023-05-23T12:34:25.283Z,18.14
2023-05-23T12:39:29.314Z,18.49
2023-05-23T12:44:32.282Z,18.90
2023-05-23T12:49:34.930Z,19.39
2023-05-23T12:54:37.615Z,19.61
2023-05-23T12:59:40.357Z,19.73
2023-05-23T13:04:43.066Z,19.94
2023-05-23T13:09:47.534Z,19.93
2023-05-23T13:14:51.599Z,20.21
2023-05-23T13:19:54.397Z,19.29
2023-05-23T13:24:57.051Z,18.95
2023-05-23T13:29:59.907Z,18.31
2023-05-23T13:35:02.630Z,18.59
2023-05-23T13:40:08.201Z,18.66
2023-05-23T13:45:11.236Z,18.96
2023-05-23T13:50:14.014Z,19.11
2023-05-23T13:55:17.527Z,18.96
2023-05-23T14:00:20.455Z,19.02
2023-05-23T14:05:23.600Z,18.70
2023-05-23T14:10:26.415Z,18.54
2023-05-23T14:15:30.132Z,18.28
2023-05-23T14:20:33.781Z,17.97
2023-05-23T14:25:36.552Z,18.03
2023-05-23T14:30:39.450Z,17.90
2023-05-23T15:16:00.751Z,18.06
2023-05-23T15:21:03.561Z,17.93
2023-05-23T15:26:06.279Z,17.89
2023-05-23T15:31:09.095Z,17.78
2023-05-23T15:36:13.314Z,17.62
2023-05-23T15:41:16.938Z,17.71
2023-05-23T15:46:19.779Z,17.62
2023-05-23T15:51:22.462Z,17.55
2023-05-23T15:56:25.152Z,17.40
2023-05-23T16:01:27.875Z,17.24
2023-05-23T16:06:31.719Z,17.15
2023-05-23T16:11:34.326Z,17.03
2023-05-23T16:16:37.008Z,17.01
2023-05-23T16:21:39.844Z,17.02
2023-05-23T16:26:42.621Z,17.03
2023-05-23T16:31:45.300Z,17.00
2023-05-23T16:36:47.989Z,16.95
2023-05-23T16:41:50.678Z,16.97
2023-05-23T16:46:53.355Z,16.84
2023-05-23T16:51:56.010Z,16.80
2023-05-23T16:57:01.756Z,16.79
2023-05-23T17:02:04.970Z,16.74
2023-05-23T17:07:09.398Z,16.71
2023-05-23T17:12:13.289Z,16.61
2023-05-23T17:17:18.650Z,16.58
2023-05-23T17:22:21.770Z,16.61
2023-05-23T17:27:24.364Z,16.57
2023-05-23T17:32:28.075Z,16.65
2023-05-23T17:37:31.026Z,16.55
2023-05-23T17:42:33.657Z,16.39
2023-05-23T17:47:36.392Z,16.32
2023-05-23T17:52:39.182Z,16.24
2023-05-23T17:57:41.845Z,16.13
2023-05-23T18:02:44.871Z,15.96
2023-05-23T18:07:47.839Z,16.00
2023-05-23T18:12:50.880Z,16.01
2023-05-23T18:17:55.606Z,16.02
2023-05-23T18:22:58.751Z,15.92
2023-05-23T18:28:02.297Z,15.89
2023-05-23T18:33:05.088Z,15.86
2023-05-23T18:38:07.854Z,15.74
2023-05-23T18:43:10.700Z,15.78
2023-05-23T18:48:13.380Z,15.69
2023-05-23T18:53:16.179Z,15.65
2023-05-23T18:58:19.046Z,15.61
2023-05-23T19:03:22.070Z,15.69
2023-05-23T19:08:24.721Z,15.60
2023-05-23T19:13:27.792Z,15.44
2023-05-23T19:18:30.563Z,15.48
2023-05-23T19:23:34.173Z,15.47
2023-05-23T19:28:37.150Z,15.55
2023-05-23T19:33:39.843Z,15.54
2023-05-23T19:38:42.514Z,15.41
2023-05-23T19:43:45.362Z,15.28
2023-05-23T19:48:48.792Z,15.54
2023-05-23T19:53:52.204Z,15.38
2023-05-23T19:58:55.021Z,15.60
2023-05-23T20:03:57.686Z,15.63
2023-05-23T20:09:00.311Z,15.67
2023-05-23T20:14:02.973Z,15.62
2023-05-23T20:19:06.587Z,15.69
2023-05-23T20:24:09.436Z,15.69
2023-05-23T20:29:12.301Z,15.72
2023-05-23T20:34:15.011Z,15.58
2023-05-23T20:39:20.084Z,15.51
2023-05-23T20:44:23.976Z,15.45
2023-05-23T20:49:27.791Z,15.47
2023-05-23T20:54:30.498Z,15.50
2023-05-23T20:59:33.247Z,15.51
2023-05-23T21:04:35.839Z,15.59
2023-05-23T21:09:38.617Z,15.68
2023-05-23T21:14:44.690Z,15.66
2023-05-23T21:19:47.366Z,15.64
2023-05-23T21:24:50.600Z,15.69
2023-05-23T21:29:53.171Z,15.60
2023-05-23T21:34:56.540Z,15.62
2023-05-23T21:39:59.055Z,15.57
2023-05-23T21:45:01.768Z,15.58
2023-05-23T21:50:08.242Z,15.61
2023-05-23T21:55:11.146Z,15.67
2023-05-23T22:00:14.628Z,15.56
2023-05-23T22:05:17.295Z,15.51
2023-05-23T22:10:20.114Z,15.43
2023-05-23T22:15:23.802Z,15.30
2023-05-23T22:20:27.972Z,15.13
2023-05-23T22:25:32.727Z,15.16
2023-05-23T22:30:35.734Z,15.11
2023-05-23T22:35:39.811Z,15.10
2023-05-23T22:40:42.770Z,15.06
2023-05-23T22:45:45.551Z,14.97
2023-05-23T22:50:48.198Z,14.98
2023-05-23T22:55:51.067Z,14.88
2023-05-23T23:00:53.870Z,14.78
2023-05-23T23:05:57.529Z,14.66
2023-05-23T23:11:00.164Z,14.77
2023-05-23T23:16:02.776Z,14.76
2023-05-23T23:21:06.014Z,14.80
2023-05-23T23:26:08.616Z,14.84
2023-05-23T23:31:11.381Z,14.86
2023-05-23T23:36:14.459Z,14.87
2023-05-23T23:41:17.121Z,14.91
2023-05-23T23:46:21.066Z,14.98
2023-05-23T23:51:23.809Z,15.03
2023-05-23T23:56:26.680Z,15.13
